Home   Weather   West Kirby   Past weeks
Flag for United Kingdom

Past Weather in West Kirby, England, United Kingdom — Yesterday and Last 2 Weeks

Currently: 45 °F. Clear. (Weather station: Liverpool Airport, United Kingdom). See more current weather

Past Weather in West Kirby — Graph

°F

West Kirby Temperature Yesterday

Maximum temperature yesterday: 46 °F (at 1:50 pm)
Minimum temperature yesterday: 36 °F (at 11:20 pm)
Average temperature yesterday: 41 °F

High & Low Weather Summary for the Past Weeks

 TemperatureHumidityPressure
High59 °F (Feb 24, 12:20 pm)100% (Feb 21, 11:50 pm)30.77 "Hg (Feb 21, 11:50 pm)
Low34 °F (Feb 28, 7:20 am)46% (Mar 6, 2:20 pm)29.30 "Hg (Feb 20, 5:20 pm)
Average45 °F81%30.30 "Hg
* Reported Feb 20 5:20 pm — Mar 7 5:50 pm, West Kirby. Weather by CustomWeather, © 2021

Note: Actual official high and low records may vary slightly from our data, if they occured in-between our weather recording intervals... More about our weather records

West Kirby Weather History for the Previous 24 Hours

Scroll right to see more
 ConditionsComfort  
Time TempWeatherWind HumidityBarometerVisibility
5:50 pm
Sun, Mar 7
45 °FPassing clouds.7 mph71%30.27 "HgN/A
5:20 pm45 °FPassing clouds.7 mph76%30.27 "HgN/A
4:50 pm45 °FPartly sunny.8 mph71%30.27 "HgN/A
4:20 pm46 °FPartly sunny.9 mph66%30.30 "HgN/A
3:50 pm46 °FPartly sunny.8 mph66%30.30 "HgN/A
3:20 pm46 °FPartly sunny.10 mph71%30.30 "HgN/A
2:50 pm48 °FCool.10 mph66%30.30 "HgN/A
2:20 pm46 °FScattered clouds.10 mph66%30.30 "HgN/A
1:50 pm46 °FPartly sunny.9 mph71%30.30 "HgN/A
1:20 pm48 °FPartly sunny.8 mph62%30.33 "HgN/A
12:20 pm46 °FScattered clouds.10 mph66%30.33 "HgN/A
11:50 am46 °FMostly cloudy.7 mph66%30.36 "HgN/A
11:20 am45 °FMostly cloudy.5 mph71%30.36 "HgN/A
10:50 am45 °FOvercast.2 mph71%30.36 "HgN/A
10:20 am41 °FOvercast.3 mph76%30.36 "HgN/A
9:50 am39 °FOvercast.3 mph81%30.36 "HgN/A
9:20 am37 °FMore clouds than sun.3 mph87%30.39 "HgN/A
8:50 am37 °FMostly cloudy.2 mph87%30.39 "HgN/A
8:20 am37 °FMostly cloudy.2 mph87%30.39 "HgN/A
7:50 am36 °FOvercast.3 mph87%30.36 "HgN/A
7:20 am36 °FOvercast.3 mph87%30.36 "HgN/A
6:50 am36 °FOvercast.2 mph87%30.36 "HgN/A
6:20 am36 °FOvercast.2 mph87%30.39 "HgN/A
5:50 am36 °FOvercast.2 mph87%30.39 "HgN/A
5:20 am36 °FOvercast.3 mph87%30.39 "HgN/A
4:50 am36 °FOvercast.3 mph87%30.39 "HgN/A
4:20 am36 °FOvercast.5 mph87%30.39 "HgN/A
3:50 am34 °FOvercast.5 mph87%30.39 "HgN/A
3:20 am34 °FOvercast.2 mph87%30.39 "HgN/A
2:50 am34 °FOvercast.3 mph87%30.42 "HgN/A
2:20 am34 °FOvercast.2 mph87%30.42 "HgN/A
1:50 am34 °FOvercast.3 mph87%30.42 "HgN/A
1:20 am34 °FPassing clouds.3 mph87%30.42 "HgN/A
12:50 am34 °FChilly.3 mph87%30.45 "HgN/A
12:20 am34 °FPassing clouds.2 mph81%30.45 "HgN/A
11:50 pm
Sat, Mar 6
36 °FPassing clouds.1 mph70%30.45 "HgN/A
11:20 pm36 °FPassing clouds.2 mph70%30.45 "HgN/A
10:50 pm37 °FOvercast.3 mph70%30.45 "HgN/A
10:20 pm37 °FOvercast.3 mph65%30.48 "HgN/A
9:50 pm37 °FOvercast.6 mph65%30.48 "HgN/A
9:20 pm39 °FPassing clouds.7 mph65%30.48 "HgN/A
8:50 pm37 °FPassing clouds.6 mph65%30.48 "HgN/A
8:20 pm37 °FClear.5 mph65%30.48 "Hg10 mi
7:50 pm39 °FClear.5 mph61%30.48 "Hg10 mi
7:20 pm41 °FClear.5 mph61%30.48 "Hg10 mi
6:50 pm39 °FClear.6 mph61%30.48 "Hg10 mi
6:20 pm41 °FPassing clouds.No wind53%30.48 "HgN/A
Weather by CustomWeather, © 2021

See weather overview